Terminal Aerodrome Forecast
Issued by NWS Knoxville/Tri Cities, TN

Home | Current Version | Previous Version | Text Only | Print | Product List | Glossary On
Versions: 1 2 3 4 5 6 7 8 9 10 11 12 13 14 15 16 17 18 19 20 21 22 23 24 25 26 27 28 29 30 31 32
000
FTUS44 KMRX 272327
TAFTYS
TAF
KTYS 272327Z 2800/2824 VRB05KT P6SM FEW060 SCT100 BKN250
     FM280300 VRB03KT P6SM SCT060 OVC250
     FM281300 23008KT 4SM -SHRA BR SCT010 OVC070
     FM281800 24008KT 4SM -SHRA VCTS BKN015CB OVC025=

USA.gov is the U.S. government's official web portal to all federal, state and local government web resources and services.